Terminal Aerodrome Forecast
Issued by NWS Melbourne, FL

Home | Current Version | Previous Version | Text Only | Print | Product List | Glossary On
Versions: 1 2 3 4 5 6 7 8 9 10 11 12 13 14 15 16 17 18 19 20 21 22 23 24 25
000
FTUS42 KMLB 060323 AAP
TAFMCO
TAF AMD
KMCO 060323Z 0603/0706 23005KT P6SM FEW040 FEW100
     FM061500 24009KT P6SM SCT025 BKN100
     FM061900 27012KT P6SM VCTS SCT025CB BKN050
      TEMPO 0619/0622 3SM TSRA BKN025CB BKN040
     FM062300 27008KT P6SM VCSH SCT035 BKN070=

USA.gov is the U.S. government's official web portal to all federal, state and local government web resources and services.